createdAt,value
2023-03-13T00:02:11.811Z,56.84
2023-03-13T00:05:18.618Z,57.36
2023-03-13T00:08:41.303Z,57.67
2023-03-13T00:11:48.774Z,59.00
2023-03-13T00:15:02.492Z,58.82
2023-03-13T00:18:11.506Z,58.49
2023-03-13T00:21:33.682Z,58.82
2023-03-13T00:24:39.211Z,59.30
2023-03-13T00:27:45.339Z,59.33
2023-03-13T00:35:27.303Z,59.98
2023-03-13T00:38:37.138Z,60.49
2023-03-13T00:41:41.775Z,61.16
2023-03-13T00:44:53.429Z,61.19
2023-03-13T00:48:08.456Z,61.70
2023-03-13T00:55:04.370Z,61.74
2023-03-13T00:58:08.182Z,60.83
2023-03-13T01:01:16.961Z,61.05
2023-03-13T01:04:27.304Z,60.36
2023-03-13T01:07:30.785Z,60.21
2023-03-13T01:10:35.529Z,60.10
2023-03-13T01:13:41.161Z,60.90
2023-03-13T01:17:07.703Z,60.27
2023-03-13T01:20:34.280Z,60.55
2023-03-13T01:23:40.743Z,61.16
2023-03-13T01:26:45.250Z,61.07
2023-03-13T01:29:54.030Z,61.09
2023-03-13T01:32:57.389Z,61.02
2023-03-13T01:36:16.871Z,62.01
2023-03-13T01:39:22.868Z,62.33
2023-03-13T01:43:01.035Z,62.40
2023-03-13T01:46:11.270Z,62.59
2023-03-13T01:49:32.946Z,62.36
2023-03-13T01:57:18.050Z,62.22
2023-03-13T02:00:26.970Z,61.88
2023-03-13T02:03:44.147Z,61.99
2023-03-13T02:06:53.237Z,61.91
2023-03-13T02:10:04.121Z,62.37
2023-03-13T02:13:07.386Z,62.18
2023-03-13T02:20:27.857Z,62.16
2023-03-13T02:23:45.585Z,62.50
2023-03-13T02:26:50.443Z,62.42
2023-03-13T02:30:00.109Z,62.59
2023-03-13T02:33:07.856Z,62.45
2023-03-13T02:41:23.732Z,62.41
2023-03-13T02:44:41.863Z,62.62
2023-03-13T02:47:48.218Z,62.72
2023-03-13T02:50:54.262Z,63.39
2023-03-13T02:54:03.533Z,63.14
2023-03-13T02:57:10.563Z,62.78
2023-03-13T03:00:17.347Z,63.19
2023-03-13T03:03:21.041Z,62.85
2023-03-13T03:06:30.280Z,63.33
2023-03-13T03:09:34.010Z,63.46
2023-03-13T03:12:45.997Z,63.76
2023-03-13T03:15:56.646Z,63.87
2023-03-13T03:19:03.211Z,63.97
2023-03-13T03:22:11.060Z,63.96
2023-03-13T03:25:14.180Z,64.21
2023-03-13T03:28:23.956Z,64.29
2023-03-13T03:31:27.195Z,64.03
2023-03-13T03:34:32.539Z,63.67
2023-03-13T03:37:43.373Z,64.10
2023-03-13T03:41:09.266Z,63.47
2023-03-13T03:44:15.506Z,62.24
2023-03-13T03:47:20.305Z,61.64
2023-03-13T03:50:25.204Z,60.81
2023-03-13T03:53:29.378Z,61.43
2023-03-13T03:56:32.862Z,60.56
2023-03-13T03:59:36.549Z,60.00
2023-03-13T04:02:43.597Z,60.12
2023-03-13T04:05:47.058Z,59.01
2023-03-13T04:08:50.466Z,59.36
2023-03-13T04:11:54.528Z,59.19
2023-03-13T04:14:58.752Z,58.63
2023-03-13T04:18:10.021Z,58.58
2023-03-13T04:21:13.370Z,57.88
2023-03-13T04:24:24.825Z,58.23
2023-03-13T04:27:30.168Z,58.18
2023-03-13T04:30:33.749Z,57.85
2023-03-13T04:33:37.505Z,58.11
2023-03-13T04:36:42.225Z,57.82
2023-03-13T04:39:45.802Z,58.06
2023-03-13T04:42:49.451Z,57.88
2023-03-13T04:45:55.946Z,58.06
2023-03-13T04:49:00.013Z,58.20
2023-03-13T04:52:03.496Z,58.01
2023-03-13T04:55:07.877Z,57.97
2023-03-13T05:02:48.164Z,58.26
2023-03-13T05:05:52.322Z,58.41
2023-03-13T05:08:59.011Z,58.58
2023-03-13T05:12:03.631Z,58.53
2023-03-13T05:15:07.530Z,59.03
2023-03-13T05:18:18.138Z,58.72
2023-03-13T05:21:28.494Z,58.76
2023-03-13T05:24:32.179Z,58.51
2023-03-13T05:27:35.897Z,58.99
2023-03-13T05:30:45.916Z,59.30
2023-03-13T05:33:49.770Z,59.18
2023-03-13T05:36:54.103Z,58.74
2023-03-13T05:40:04.368Z,58.27
2023-03-13T05:43:18.081Z,58.32
2023-03-13T05:46:22.055Z,58.18
2023-03-13T05:49:28.512Z,57.92
2023-03-13T05:52:35.169Z,57.60
2023-03-13T05:55:38.928Z,56.97
2023-03-13T05:58:42.601Z,57.23
2023-03-13T06:01:46.614Z,56.84
2023-03-13T06:04:50.857Z,56.27
2023-03-13T06:08:08.450Z,55.86
2023-03-13T06:11:31.831Z,55.74
2023-03-13T06:14:35.291Z,56.34
2023-03-13T06:17:41.865Z,55.77
2023-03-13T06:20:50.084Z,56.17
2023-03-13T06:23:58.358Z,55.16
2023-03-13T06:27:01.363Z,55.45
2023-03-13T06:30:15.167Z,55.30
2023-03-13T06:33:24.872Z,55.76
2023-03-13T06:36:28.865Z,55.61
2023-03-13T06:39:32.491Z,55.02
2023-03-13T06:42:36.150Z,54.58
2023-03-13T06:45:39.260Z,54.74
2023-03-13T06:49:01.221Z,55.22
2023-03-13T06:52:06.548Z,53.88
2023-03-13T06:55:16.748Z,53.75
2023-03-13T06:58:31.718Z,53.79
2023-03-13T07:01:38.245Z,54.28
2023-03-13T07:04:45.345Z,54.08
2023-03-13T07:07:49.328Z,54.37
2023-03-13T07:10:54.833Z,53.34
2023-03-13T07:14:15.340Z,53.69
2023-03-13T07:17:21.492Z,53.01
2023-03-13T07:25:02.706Z,52.07
2023-03-13T07:28:06.122Z,51.08
2023-03-13T07:31:39.952Z,50.90
2023-03-13T07:34:47.006Z,51.58
2023-03-13T07:37:50.108Z,51.01
2023-03-13T07:40:55.508Z,51.17
2023-03-13T07:43:58.594Z,50.46
2023-03-13T07:47:09.188Z,50.63
2023-03-13T07:50:21.104Z,50.17
2023-03-13T07:53:34.260Z,50.47
2023-03-13T07:56:37.630Z,50.48
2023-03-13T07:59:47.823Z,50.66
2023-03-13T08:02:51.086Z,49.92
2023-03-13T08:06:06.220Z,49.27
2023-03-13T08:09:11.188Z,49.32
2023-03-13T08:12:14.548Z,49.85
2023-03-13T08:15:22.056Z,49.38
2023-03-13T08:18:25.290Z,48.76
2023-03-13T08:21:30.971Z,49.30
2023-03-13T08:24:35.062Z,49.03
2023-03-13T08:27:38.424Z,49.20
2023-03-13T08:30:44.031Z,48.45
2023-03-13T08:33:48.279Z,48.17
2023-03-13T08:36:53.746Z,47.65
2023-03-13T08:39:57.305Z,47.26
2023-03-13T08:43:01.989Z,47.14
2023-03-13T08:46:05.914Z,46.88
2023-03-13T08:49:16.184Z,47.11
2023-03-13T08:52:22.570Z,46.06
2023-03-13T08:55:29.649Z,46.07
2023-03-13T08:58:33.108Z,46.62
2023-03-13T09:01:36.940Z,45.90
2023-03-13T09:04:40.193Z,46.78
2023-03-13T09:07:46.824Z,45.78
2023-03-13T09:10:59.428Z,46.15
2023-03-13T09:14:06.981Z,45.73
2023-03-13T09:17:14.425Z,46.03
2023-03-13T09:20:24.556Z,45.49
2023-03-13T09:23:33.777Z,46.19
2023-03-13T09:27:00.169Z,45.00
2023-03-13T09:30:04.794Z,45.53
2023-03-13T09:33:11.112Z,45.73
2023-03-13T09:36:44.007Z,45.62
2023-03-13T09:39:49.100Z,45.13
2023-03-13T09:42:58.679Z,44.99
2023-03-13T09:46:12.141Z,44.78
2023-03-13T09:49:38.528Z,44.14
2023-03-13T09:52:44.012Z,43.98
2023-03-13T09:55:47.535Z,43.57
2023-03-13T09:59:12.493Z,43.43
2023-03-13T10:02:36.985Z,43.15
2023-03-13T10:06:06.094Z,42.65
2023-03-13T10:09:23.505Z,42.25
2023-03-13T10:12:39.019Z,42.25
2023-03-13T10:15:58.668Z,41.85
2023-03-13T10:19:13.045Z,41.62
2023-03-13T10:22:20.901Z,41.77
2023-03-13T10:25:27.265Z,41.67
2023-03-13T10:28:30.207Z,40.95
2023-03-13T10:31:34.507Z,40.71
2023-03-13T10:34:51.601Z,40.70
2023-03-13T10:38:03.554Z,40.42
2023-03-13T10:41:36.360Z,39.48
2023-03-13T10:44:40.486Z,40.01
2023-03-13T10:47:43.576Z,39.50
2023-03-13T10:50:49.251Z,39.13
2023-03-13T10:53:52.234Z,39.14
2023-03-13T10:57:31.246Z,39.30
2023-03-13T11:00:39.277Z,38.57
2023-03-13T11:03:43.914Z,38.38
2023-03-13T11:06:53.244Z,37.59
2023-03-13T11:10:21.094Z,36.72
2023-03-13T11:13:36.539Z,36.37
2023-03-13T11:16:48.027Z,37.19
2023-03-13T11:19:58.887Z,36.27
2023-03-13T11:23:30.002Z,36.37
2023-03-13T11:26:39.877Z,37.44
2023-03-13T11:29:54.449Z,37.04
2023-03-13T11:33:01.177Z,36.63
2023-03-13T11:36:25.844Z,36.66
2023-03-13T11:39:47.359Z,35.05
2023-03-13T11:43:28.126Z,35.61
2023-03-13T11:46:43.153Z,36.43
2023-03-13T11:49:47.790Z,36.62
2023-03-13T11:53:14.021Z,36.60
2023-03-13T11:56:28.836Z,36.25
2023-03-13T11:59:43.905Z,35.82
2023-03-13T12:03:06.090Z,34.71
2023-03-13T12:06:27.948Z,34.57
2023-03-13T12:09:33.690Z,33.55
2023-03-13T12:12:55.617Z,34.17
2023-03-13T12:16:12.784Z,32.78
2023-03-13T12:19:24.223Z,30.63
2023-03-13T12:22:41.756Z,30.26
2023-03-13T12:25:49.821Z,29.83
2023-03-13T12:29:40.799Z,30.02
2023-03-13T12:32:52.788Z,29.54
2023-03-13T12:36:10.797Z,29.39
2023-03-13T12:39:30.848Z,29.29
2023-03-13T12:42:47.879Z,27.69
2023-03-13T12:45:57.246Z,28.86
2023-03-13T12:49:06.034Z,30.16
2023-03-13T12:52:24.176Z,29.46
2023-03-13T12:56:05.115Z,28.56
2023-03-13T12:59:12.994Z,27.89
2023-03-13T13:02:22.073Z,26.67
2023-03-13T13:05:25.529Z,27.82
2023-03-13T13:08:34.250Z,28.43
2023-03-13T13:11:37.504Z,30.76
2023-03-13T13:14:49.507Z,33.14
2023-03-13T13:18:03.527Z,33.13
2023-03-13T13:21:26.937Z,34.28
2023-03-13T13:24:51.900Z,34.84
2023-03-13T13:27:55.138Z,35.73
2023-03-13T13:30:58.862Z,35.26
2023-03-13T13:34:02.099Z,36.11
2023-03-13T13:37:20.796Z,35.97
2023-03-13T13:40:28.105Z,35.25
2023-03-13T13:43:36.736Z,35.17
2023-03-13T13:46:45.433Z,34.61
2023-03-13T13:49:57.892Z,34.99
2023-03-13T13:53:54.399Z,34.58
2023-03-13T13:57:03.576Z,33.28
2023-03-13T14:00:21.199Z,33.09
2023-03-13T14:03:31.948Z,31.08
2023-03-13T14:06:49.464Z,30.28
2023-03-13T14:09:58.212Z,31.14
2023-03-13T14:13:03.128Z,31.43
2023-03-13T14:16:25.465Z,31.91
2023-03-13T14:19:35.848Z,30.50
2023-03-13T14:27:16.624Z,29.06
2023-03-13T14:34:26.908Z,29.14
2023-03-13T14:37:44.768Z,30.15
2023-03-13T14:41:42.918Z,31.19
2023-03-13T14:48:40.411Z,31.82
2023-03-13T14:52:05.120Z,31.60
2023-03-13T14:55:28.012Z,31.18
2023-03-13T14:58:31.975Z,32.44
2023-03-13T15:01:35.223Z,32.82
2023-03-13T15:04:49.561Z,33.54
2023-03-13T15:08:23.277Z,34.13
2023-03-13T15:11:32.479Z,35.09
2023-03-13T15:14:40.255Z,35.49
2023-03-13T15:17:47.556Z,36.32
2023-03-13T15:20:55.066Z,36.19
2023-03-13T15:24:15.939Z,36.63
2023-03-13T15:27:21.801Z,37.46
2023-03-13T15:30:25.263Z,36.95
2023-03-13T15:33:29.879Z,37.24
2023-03-13T15:36:33.674Z,37.74
2023-03-13T15:39:37.848Z,38.12
2023-03-13T15:42:46.012Z,38.33
2023-03-13T15:46:05.488Z,38.87
2023-03-13T16:31:37.918Z,44.72
2023-03-13T16:34:42.744Z,45.56
2023-03-13T16:37:46.227Z,45.30
2023-03-13T16:40:52.898Z,45.60
2023-03-13T16:44:07.988Z,45.15
2023-03-13T16:55:29.900Z,46.23
2023-03-13T16:58:33.420Z,46.25
2023-03-13T17:01:37.669Z,46.64
2023-03-13T17:04:52.101Z,46.62
2023-03-13T17:07:57.010Z,46.61
2023-03-13T17:11:18.019Z,46.96
2023-03-13T17:14:21.357Z,46.83
2023-03-13T17:17:26.195Z,46.89
2023-03-13T17:20:30.896Z,47.26
2023-03-13T17:23:55.663Z,47.42
2023-03-13T17:26:59.596Z,47.62
2023-03-13T17:30:06.080Z,47.61
2023-03-13T17:33:10.449Z,47.37
2023-03-13T17:36:18.636Z,47.72
2023-03-13T17:39:25.162Z,47.98
2023-03-13T17:42:40.214Z,47.70
2023-03-13T18:36:21.594Z,49.37
2023-03-13T18:39:27.767Z,49.29
2023-03-13T18:46:30.370Z,49.48
2023-03-13T18:49:40.859Z,49.75
2023-03-13T18:53:00.836Z,49.72
2023-03-13T19:00:04.588Z,50.00
2023-03-13T19:03:17.527Z,50.30
2023-03-13T20:53:58.049Z,50.59
2023-03-13T20:57:02.977Z,49.91
2023-03-13T21:00:09.963Z,49.91
2023-03-13T21:03:18.472Z,49.51
2023-03-13T21:06:23.332Z,49.20
2023-03-13T21:09:28.740Z,49.11
2023-03-13T21:12:33.217Z,48.52
2023-03-13T21:15:37.960Z,48.29
2023-03-13T21:18:42.825Z,48.52
2023-03-13T21:21:47.775Z,48.37
2023-03-13T21:24:52.142Z,48.43
2023-03-13T21:27:55.951Z,48.30
2023-03-13T21:30:59.699Z,48.00
2023-03-13T21:34:04.016Z,47.54
2023-03-13T21:37:08.493Z,47.49
